Time;durP1;ratioP1;P1;durP2;ratioP2;P2;SDS_P1;SDS_P2;PMS_P1;PMS_P2;Temp;Humidity;BMP_temperature;BMP_pressure;BME280_temperature;BME280_humidity;BME280_pressure;Samples;Min_cycle;Max_cycle;Signal;HPM_P1;HPM_P2
2022/10/29 00:00:56;;;;;;;15.80;3.58;;;13.10;99.90;;;;;;5037031;28;20137;-40
2022/10/29 00:03:24;;;;;;;16.40;3.55;;;13.10;99.90;;;;;;5035947;28;20076;-40
2022/10/29 00:05:56;;;;;;;18.92;3.50;;;13.10;99.90;;;;;;5054245;28;20049;-41
2022/10/29 00:08:23;;;;;;;26.90;4.95;;;13.10;99.90;;;;;;5053751;28;20049;-41
2022/10/29 00:10:49;;;;;;;19.40;4.00;;;13.10;99.90;;;;;;5036685;28;20131;-41
2022/10/29 00:13:16;;;;;;;16.85;3.45;;;13.00;99.90;;;;;;5036045;28;20077;-41
2022/10/29 00:15:43;;;;;;;16.27;3.55;;;13.10;99.90;;;;;;5048689;28;20092;-40
2022/10/29 00:18:09;;;;;;;15.88;3.03;;;13.10;99.90;;;;;;5036468;28;20140;-41
2022/10/29 00:20:38;;;;;;;17.52;3.35;;;13.00;99.90;;;;;;5035027;28;20131;-41
2022/10/29 00:23:04;;;;;;;17.27;4.00;;;13.10;99.90;;;;;;5036494;28;20057;-41
2022/10/29 00:25:31;;;;;;;20.55;3.85;;;13.10;99.90;;;;;;5036473;28;20048;-42
2022/10/29 00:27:58;;;;;;;15.52;3.10;;;13.00;99.90;;;;;;5053818;28;20124;-41
2022/10/29 00:30:25;;;;;;;14.63;3.22;;;13.00;99.90;;;;;;5034275;28;20102;-41
2022/10/29 00:32:51;;;;;;;17.52;3.58;;;13.00;99.90;;;;;;5053700;28;20068;-41
2022/10/29 00:35:18;;;;;;;20.95;4.07;;;13.00;99.90;;;;;;5040540;28;20140;-41
2022/10/29 00:37:46;;;;;;;17.98;4.05;;;13.00;99.90;;;;;;5036319;28;20508;-41
2022/10/29 00:40:13;;;;;;;18.70;4.53;;;12.90;99.90;;;;;;5052735;28;20084;-41
2022/10/29 00:42:40;;;;;;;21.17;3.35;;;13.00;99.90;;;;;;5054492;28;20124;-41
2022/10/29 00:45:08;;;;;;;16.30;3.90;;;12.90;99.90;;;;;;5047629;28;20139;-41
2022/10/29 00:47:36;;;;;;;16.20;3.70;;;12.90;99.90;;;;;;5053759;28;20477;-42
2022/10/29 00:50:04;;;;;;;18.80;4.05;;;12.90;99.90;;;;;;5052180;28;20099;-42
2022/10/29 00:52:32;;;;;;;16.20;3.40;;;12.90;99.90;;;;;;5036429;28;20142;-41
2022/10/29 00:55:00;;;;;;;15.82;3.72;;;12.80;99.90;;;;;;5053288;28;20094;-41
2022/10/29 00:57:29;;;;;;;14.68;3.38;;;12.80;99.90;;;;;;5052765;28;20128;-41
2022/10/29 00:59:56;;;;;;;15.10;3.10;;;12.80;99.90;;;;;;5053530;28;20088;-41
2022/10/29 01:02:23;;;;;;;17.23;3.85;;;12.80;99.90;;;;;;5053405;28;20442;-42
2022/10/29 01:04:50;;;;;;;16.20;3.35;;;12.70;99.90;;;;;;5034377;28;20067;-42
2022/10/29 01:07:16;;;;;;;17.73;4.10;;;12.70;99.90;;;;;;5053781;28;20103;-40
2022/10/29 01:09:43;;;;;;;19.75;5.30;;;12.70;99.90;;;;;;5052501;28;20049;-40
2022/10/29 01:12:24;;;;;;;15.95;3.70;;;12.70;99.90;;;;;;5054071;28;20524;-41
2022/10/29 01:14:54;;;;;;;17.58;4.72;;;12.70;99.90;;;;;;5034080;28;20132;-40
2022/10/29 01:17:24;;;;;;;23.27;5.47;;;12.60;99.90;;;;;;5051513;28;20135;-41
2022/10/29 01:20:02;;;;;;;24.02;5.38;;;12.60;99.90;;;;;;5033977;28;20099;-41
2022/10/29 01:22:30;;;;;;;16.80;4.65;;;12.60;99.90;;;;;;5034911;28;20093;-41
2022/10/29 01:25:17;;;;;;;15.15;4.00;;;12.50;99.90;;;;;;5053992;28;20045;-44
2022/10/29 01:27:54;;;;;;;17.58;4.07;;;12.50;99.90;;;;;;5034567;28;20489;-41
2022/10/29 01:30:24;;;;;;;10.63;3.22;;;12.50;99.90;;;;;;5052109;28;20129;-40
2022/10/29 01:33:04;;;;;;;14.23;3.80;;;12.50;99.90;;;;;;5052796;28;20493;-41
2022/10/29 01:35:34;;;;;;;13.68;3.78;;;12.40;99.90;;;;;;5026547;28;20527;-41
2022/10/29 01:38:09;;;;;;;15.68;4.20;;;12.40;99.90;;;;;;5032674;28;20087;-44
2022/10/29 01:40:39;;;;;;;11.45;3.28;;;12.40;99.90;;;;;;5035072;28;20088;-41
2022/10/29 01:43:08;;;;;;;17.65;5.20;;;12.40;99.90;;;;;;5050745;28;20052;-42
2022/10/29 01:45:36;;;;;;;15.32;3.80;;;12.30;99.90;;;;;;5051128;28;20072;-40
2022/10/29 01:48:07;;;;;;;16.10;4.13;;;12.30;99.90;;;;;;5024415;28;20231;-42
2022/10/29 01:50:34;;;;;;;15.48;3.75;;;12.30;99.90;;;;;;5051411;28;20099;-41
2022/10/29 01:53:01;;;;;;;10.88;3.42;;;12.20;99.90;;;;;;5035385;28;20076;-41
2022/10/29 01:55:29;;;;;;;17.33;4.28;;;12.30;99.90;;;;;;5031545;28;20051;-41
2022/10/29 01:57:56;;;;;;;15.38;3.40;;;12.20;99.90;;;;;;5052151;28;20485;-41
2022/10/29 02:00:23;;;;;;;18.15;5.28;;;12.20;99.90;;;;;;5052269;28;20496;-43
2022/10/29 02:02:58;;;;;;;15.93;5.30;;;12.30;99.90;;;;;;5025128;28;20049;-42
2022/10/29 02:05:30;;;;;;;19.25;5.72;;;12.10;99.90;;;;;;5052010;28;20131;-42
2022/10/29 02:07:59;;;;;;;16.10;4.53;;;12.10;99.90;;;;;;5032201;28;20136;-41
2022/10/29 02:10:27;;;;;;;14.80;4.70;;;12.10;99.90;;;;;;5034544;28;20135;-41
2022/10/29 02:12:54;;;;;;;18.70;4.80;;;12.10;99.90;;;;;;5050487;28;20547;-41
2022/10/29 02:15:24;;;;;;;18.10;4.85;;;12.00;99.90;;;;;;5051818;28;20516;-41
2022/10/29 02:17:50;;;;;;;15.65;5.53;;;12.00;99.90;;;;;;5034544;28;20135;-41
2022/10/29 02:20:17;;;;;;;14.00;5.00;;;12.00;99.90;;;;;;5032301;28;20110;-42
2022/10/29 02:22:45;;;;;;;26.15;6.38;;;12.00;99.90;;;;;;5032334;28;20083;-41
2022/10/29 02:25:12;;;;;;;18.20;6.10;;;11.90;99.90;;;;;;5051256;28;20065;-41
2022/10/29 02:27:40;;;;;;;15.73;5.05;;;12.00;99.90;;;;;;5050914;28;20153;-42
2022/10/29 02:30:08;;;;;;;13.65;4.25;;;12.00;99.90;;;;;;5052099;28;20041;-41
2022/10/29 02:32:35;;;;;;;14.98;5.03;;;11.90;99.90;;;;;;5035206;28;20049;-41
2022/10/29 02:35:01;;;;;;;11.13;4.03;;;11.90;99.90;;;;;;5052566;28;20089;-42
2022/10/29 02:37:28;;;;;;;15.18;5.13;;;11.90;99.90;;;;;;5051749;28;20140;-41
2022/10/29 02:39:56;;;;;;;14.57;4.45;;;11.80;99.90;;;;;;5049251;28;20072;-41
2022/10/29 02:42:23;;;;;;;14.50;4.05;;;11.80;99.90;;;;;;5050524;28;20053;-41
2022/10/29 02:44:50;;;;;;;24.48;6.10;;;11.80;99.90;;;;;;5052359;28;20080;-41
2022/10/29 02:47:16;;;;;;;17.85;6.18;;;11.80;99.90;;;;;;5052511;28;20135;-42
2022/10/29 02:49:43;;;;;;;11.02;4.18;;;11.70;99.90;;;;;;5034075;28;20127;-42
2022/10/29 02:52:10;;;;;;;17.77;5.68;;;11.70;99.90;;;;;;5049840;28;20131;-42
2022/10/29 02:54:38;;;;;;;16.70;6.25;;;11.70;99.90;;;;;;5034058;28;20108;-41
2022/10/29 02:57:07;;;;;;;12.45;5.75;;;11.70;99.90;;;;;;5050665;28;20493;-41
2022/10/29 02:59:33;;;;;;;13.05;5.35;;;11.70;99.90;;;;;;5031417;28;20077;-42
2022/10/29 03:02:00;;;;;;;16.50;6.30;;;11.60;99.90;;;;;;5051694;28;20161;-41
2022/10/29 03:04:27;;;;;;;16.85;6.28;;;11.60;99.90;;;;;;5051478;28;20063;-44
2022/10/29 03:06:54;;;;;;;25.13;8.30;;;11.60;99.90;;;;;;5033280;28;20080;-42
2022/10/29 03:09:20;;;;;;;16.02;5.00;;;11.60;99.90;;;;;;5052122;28;20084;-42
2022/10/29 03:11:47;;;;;;;37.00;8.10;;;11.60;99.90;;;;;;5049460;28;20136;-42
2022/10/29 03:14:15;;;;;;;19.83;6.78;;;11.60;99.90;;;;;;5033541;28;20604;-41
2022/10/29 03:16:42;;;;;;;10.93;4.68;;;11.60;99.90;;;;;;5034621;28;20134;-41
2022/10/29 03:19:09;;;;;;;29.23;6.60;;;11.60;99.90;;;;;;5050304;28;20087;-42
2022/10/29 03:21:36;;;;;;;30.98;7.90;;;11.60;99.90;;;;;;5050651;28;20574;-44
2022/10/29 03:24:04;;;;;;;24.45;7.53;;;11.60;99.90;;;;;;5033292;28;20060;-41
2022/10/29 03:26:30;;;;;;;8.15;5.85;;;11.60;99.90;;;;;;5035053;28;20092;-43
2022/10/29 03:28:57;;;;;;;11.90;6.18;;;11.70;99.90;;;;;;5051165;28;20469;-43
2022/10/29 03:31:25;;;;;;;35.17;7.78;;;11.70;99.90;;;;;;5048622;28;20076;-42
2022/10/29 03:33:52;;;;;;;10.25;5.35;;;11.60;99.90;;;;;;5030763;28;20093;-43
2022/10/29 03:36:19;;;;;;;10.07;5.80;;;11.70;99.90;;;;;;5050750;28;20085;-42
2022/10/29 03:38:46;;;;;;;14.40;6.15;;;11.70;99.90;;;;;;5032911;28;20460;-42
2022/10/29 03:41:12;;;;;;;11.07;7.07;;;11.70;99.90;;;;;;5033468;28;20083;-42
2022/10/29 03:43:39;;;;;;;16.65;7.85;;;11.70;99.90;;;;;;5049950;28;20085;-44
2022/10/29 03:46:06;;;;;;;16.88;8.07;;;11.70;99.90;;;;;;5032165;28;20084;-42
2022/10/29 03:48:34;;;;;;;32.60;10.27;;;11.70;99.90;;;;;;5032970;28;20053;-42
2022/10/29 03:51:02;;;;;;;18.35;9.52;;;11.70;99.90;;;;;;5049381;28;20490;-42
2022/10/29 03:53:29;;;;;;;18.02;10.30;;;11.80;99.90;;;;;;5054592;28;20087;-42
2022/10/29 03:55:56;;;;;;;17.50;9.55;;;11.80;99.90;;;;;;5034356;28;20052;-42
2022/10/29 03:58:23;;;;;;;18.98;10.38;;;11.80;99.90;;;;;;5036034;28;20136;-41
2022/10/29 04:00:57;;;;;;;21.83;10.88;;;11.80;99.90;;;;;;5054837;28;20102;-41
2022/10/29 04:03:24;;;;;;;30.50;12.80;;;11.90;99.90;;;;;;5036428;28;20125;-41
2022/10/29 04:05:52;;;;;;;22.35;9.95;;;11.90;99.90;;;;;;5034646;28;20585;-41
2022/10/29 04:08:18;;;;;;;27.23;12.80;;;11.90;99.90;;;;;;5052529;28;20131;-42
2022/10/29 04:10:45;;;;;;;20.80;10.32;;;11.90;99.90;;;;;;5054196;28;20099;-41
2022/10/29 04:13:12;;;;;;;26.33;11.75;;;12.00;99.90;;;;;;5055344;28;20091;-42
2022/10/29 04:15:40;;;;;;;19.40;12.02;;;12.00;99.90;;;;;;5028762;28;20139;-42
2022/10/29 04:18:07;;;;;;;18.90;8.82;;;12.00;99.90;;;;;;5053217;28;20111;-42
2022/10/29 04:20:33;;;;;;;15.18;9.27;;;12.00;99.90;;;;;;5036965;28;20052;-41
2022/10/29 04:23:02;;;;;;;24.73;10.85;;;12.00;99.90;;;;;;5036117;28;20140;-42
2022/10/29 04:25:28;;;;;;;29.33;12.50;;;12.10;99.90;;;;;;5053742;28;20132;-42
2022/10/29 04:27:55;;;;;;;35.55;13.73;;;12.10;99.90;;;;;;5054706;28;20129;-42
2022/10/29 04:30:22;;;;;;;25.50;12.55;;;12.10;99.90;;;;;;5052420;28;20085;-41
2022/10/29 04:32:49;;;;;;;39.83;15.27;;;12.20;99.90;;;;;;5036538;28;20050;-42
2022/10/29 04:35:16;;;;;;;36.72;15.05;;;12.20;99.90;;;;;;5052077;28;20132;-41
2022/10/29 04:37:42;;;;;;;41.67;15.50;;;12.20;99.90;;;;;;5036424;28;20064;-41
2022/10/29 04:40:12;;;;;;;20.27;12.40;;;12.20;99.90;;;;;;5035678;28;20142;-42
2022/10/29 04:42:39;;;;;;;34.35;14.85;;;12.20;99.90;;;;;;5035208;28;20090;-42
2022/10/29 04:45:07;;;;;;;39.53;15.82;;;12.20;99.90;;;;;;5052951;28;20053;-41
2022/10/29 04:47:34;;;;;;;28.40;14.00;;;12.30;99.90;;;;;;5033446;28;20099;-41
2022/10/29 04:50:01;;;;;;;42.08;17.40;;;12.30;99.90;;;;;;5036518;28;20128;-41
2022/10/29 04:52:27;;;;;;;46.35;17.25;;;12.30;99.90;;;;;;5036411;28;20076;-41
2022/10/29 04:54:54;;;;;;;35.78;15.77;;;12.20;99.90;;;;;;5034086;28;20453;-42
2022/10/29 04:57:22;;;;;;;52.17;18.15;;;12.40;99.90;;;;;;5033909;28;20044;-42
2022/10/29 04:59:49;;;;;;;32.17;13.77;;;12.40;99.90;;;;;;5035702;28;20078;-41
2022/10/29 05:02:16;;;;;;;57.25;18.77;;;12.40;99.90;;;;;;5033871;28;20052;-41
2022/10/29 05:04:42;;;;;;;34.55;16.27;;;12.40;99.90;;;;;;5035777;28;20560;-40
2022/10/29 05:07:09;;;;;;;45.47;17.10;;;12.40;99.90;;;;;;5053171;28;20084;-42
2022/10/29 05:09:36;;;;;;;47.65;17.25;;;12.40;99.90;;;;;;5054079;28;20132;-41
2022/10/29 05:12:03;;;;;;;38.05;16.98;;;12.50;99.90;;;;;;5054303;28;20087;-41
2022/10/29 05:14:31;;;;;;;37.75;17.33;;;12.50;99.90;;;;;;5054007;28;20048;-42
2022/10/29 05:16:58;;;;;;;45.88;18.35;;;12.50;99.90;;;;;;5053204;28;20051;-43
2022/10/29 05:19:24;;;;;;;46.95;18.27;;;12.50;99.90;;;;;;5052153;28;20136;-41
2022/10/29 05:21:51;;;;;;;45.72;18.63;;;12.50;99.90;;;;;;5052414;28;20052;-42
2022/10/29 05:24:18;;;;;;;51.63;18.08;;;12.50;99.90;;;;;;5036150;28;20057;-42
2022/10/29 05:26:44;;;;;;;36.88;16.77;;;12.60;99.90;;;;;;5035991;28;20090;-41
2022/10/29 05:29:11;;;;;;;43.00;15.95;;;12.60;99.90;;;;;;5052950;28;20135;-42
2022/10/29 05:31:39;;;;;;;48.42;15.63;;;12.60;99.90;;;;;;5036299;28;20060;-42
2022/10/29 05:34:06;;;;;;;45.08;16.83;;;12.60;99.90;;;;;;5033998;28;20440;-41
2022/10/29 05:36:33;;;;;;;49.92;16.55;;;12.60;99.90;;;;;;5034834;28;20055;-41
2022/10/29 05:39:00;;;;;;;41.90;16.33;;;12.60;99.90;;;;;;5034612;28;20075;-42
2022/10/29 05:41:26;;;;;;;36.17;14.45;;;12.60;99.90;;;;;;5031293;28;20111;-41
2022/10/29 05:43:53;;;;;;;42.03;16.42;;;12.60;99.90;;;;;;5036813;28;20136;-43
2022/10/29 05:46:23;;;;;;;50.60;17.20;;;12.60;99.90;;;;;;5034605;28;20456;-41
2022/10/29 05:48:51;;;;;;;39.00;16.45;;;12.70;99.90;;;;;;5033748;28;20103;-43
2022/10/29 05:51:18;;;;;;;45.50;18.45;;;12.70;99.90;;;;;;5030483;28;20122;-41
2022/10/29 05:53:45;;;;;;;50.22;18.70;;;12.70;99.90;;;;;;5030351;28;20499;-41
2022/10/29 05:56:11;;;;;;;42.08;17.13;;;12.70;99.90;;;;;;5034517;28;20140;-41
2022/10/29 05:58:38;;;;;;;61.38;18.65;;;12.60;99.90;;;;;;5032842;28;20128;-43
2022/10/29 06:01:06;;;;;;;27.90;14.00;;;12.70;99.90;;;;;;5049338;28;20231;-41
2022/10/29 06:03:33;;;;;;;47.22;18.23;;;12.70;99.90;;;;;;5050761;28;20095;-42
2022/10/29 06:06:01;;;;;;;39.25;16.38;;;12.70;99.90;;;;;;5051390;28;20132;-42
2022/10/29 06:08:27;;;;;;;47.42;18.25;;;12.60;99.90;;;;;;5041656;28;20131;-41
2022/10/29 06:10:54;;;;;;;59.35;19.38;;;12.70;99.90;;;;;;5049588;28;20138;-42
2022/10/29 06:13:22;;;;;;;51.00;17.90;;;12.70;99.90;;;;;;5050645;28;20491;-41
2022/10/29 06:15:49;;;;;;;37.97;17.08;;;12.70;99.90;;;;;;5048645;28;20091;-41
2022/10/29 06:18:16;;;;;;;49.05;18.73;;;12.70;99.90;;;;;;5027454;28;20084;-41
2022/10/29 06:20:43;;;;;;;71.72;18.95;;;12.60;99.90;;;;;;5047771;28;20138;-39
2022/10/29 06:23:11;;;;;;;36.60;16.60;;;12.60;99.90;;;;;;5031726;28;20049;-42
2022/10/29 06:25:38;;;;;;;38.25;17.65;;;12.70;99.90;;;;;;5029871;28;20481;-42
2022/10/29 06:28:05;;;;;;;33.10;16.55;;;12.60;99.90;;;;;;5043486;28;20100;-41
2022/10/29 06:30:33;;;;;;;65.93;18.55;;;12.60;99.90;;;;;;5032912;28;20075;-41
2022/10/29 06:33:00;;;;;;;59.58;19.25;;;12.60;99.90;;;;;;5030616;28;20052;-42
2022/10/29 06:35:27;;;;;;;65.60;19.88;;;12.60;99.90;;;;;;5049966;28;20103;-42
2022/10/29 06:37:54;;;;;;;46.78;18.40;;;12.60;99.90;;;;;;5020221;28;20533;-41
2022/10/29 06:40:22;;;;;;;35.78;15.25;;;12.60;99.90;;;;;;5033322;28;20099;-41
2022/10/29 06:42:48;;;;;;;58.95;19.10;;;12.60;99.90;;;;;;5054114;28;20107;-42
2022/10/29 06:45:15;;;;;;;28.10;15.48;;;12.60;99.90;;;;;;5049945;28;20071;-43
2022/10/29 06:47:43;;;;;;;40.05;16.45;;;12.60;99.90;;;;;;5050871;28;20045;-42
2022/10/29 06:50:10;;;;;;;41.70;18.35;;;12.60;99.90;;;;;;5048539;28;20520;-43
2022/10/29 06:52:37;;;;;;;43.17;18.45;;;12.70;99.90;;;;;;5031878;28;20052;-42
2022/10/29 06:55:04;;;;;;;52.80;19.00;;;12.60;99.90;;;;;;5053816;28;20053;-42
2022/10/29 06:57:32;;;;;;;56.58;18.48;;;12.70;99.90;;;;;;5050288;28;20091;-41
2022/10/29 06:59:59;;;;;;;94.53;18.33;;;12.70;99.90;;;;;;5029911;28;20053;-41
2022/10/29 07:02:26;;;;;;;43.70;16.92;;;12.70;99.90;;;;;;5047844;28;20048;-42
2022/10/29 07:04:52;;;;;;;34.42;16.85;;;12.70;99.90;;;;;;5048643;28;20468;-41
2022/10/29 07:07:19;;;;;;;27.02;15.65;;;12.70;99.90;;;;;;5049583;28;20073;-41
2022/10/29 07:09:46;;;;;;;25.08;15.93;;;12.70;99.90;;;;;;5044298;28;20131;-42
2022/10/29 07:12:13;;;;;;;32.72;17.52;;;12.70;99.90;;;;;;5031714;28;20132;-41
2022/10/29 07:14:41;;;;;;;46.13;18.38;;;12.80;99.90;;;;;;5049114;28;20131;-41
2022/10/29 07:17:07;;;;;;;32.85;18.05;;;12.70;99.90;;;;;;5051431;28;20083;-41
2022/10/29 07:19:34;;;;;;;23.02;15.00;;;12.80;99.90;;;;;;5030677;28;20128;-40
2022/10/29 07:22:01;;;;;;;20.63;13.30;;;12.80;99.90;;;;;;5027476;28;20053;-42
2022/10/29 07:24:28;;;;;;;26.52;16.52;;;12.80;99.90;;;;;;5033063;28;20115;-41
2022/10/29 07:26:54;;;;;;;31.15;18.13;;;12.70;99.90;;;;;;5053457;28;20072;-41
2022/10/29 07:29:21;;;;;;;27.10;17.10;;;12.80;99.90;;;;;;5038438;28;20153;-42
2022/10/29 07:31:49;;;;;;;33.53;18.27;;;12.80;99.90;;;;;;5054941;28;20128;-41
2022/10/29 07:34:16;;;;;;;28.27;17.25;;;12.80;99.90;;;;;;5054128;28;20080;-41
2022/10/29 07:36:43;;;;;;;25.20;16.20;;;12.80;99.90;;;;;;5055062;28;20132;-42
2022/10/29 07:39:10;;;;;;;25.45;15.60;;;12.80;99.90;;;;;;5034219;28;20136;-41
2022/10/29 07:41:36;;;;;;;26.98;16.45;;;12.80;99.90;;;;;;5030394;28;20076;-41
2022/10/29 07:44:03;;;;;;;29.25;18.15;;;12.90;99.90;;;;;;5051141;28;20048;-41
2022/10/29 07:46:30;;;;;;;25.58;16.55;;;12.90;99.90;;;;;;5037643;28;20083;-41
2022/10/29 07:48:58;;;;;;;25.20;16.27;;;12.90;99.90;;;;;;5055662;28;20092;-41
2022/10/29 07:51:25;;;;;;;27.83;17.45;;;12.90;99.90;;;;;;5054660;28;20057;-42
2022/10/29 07:53:52;;;;;;;27.80;16.88;;;12.90;99.90;;;;;;5054308;28;20515;-41
2022/10/29 07:56:19;;;;;;;27.83;17.65;;;13.00;99.90;;;;;;5037692;28;20528;-41
2022/10/29 07:58:45;;;;;;;28.55;17.60;;;13.00;99.90;;;;;;5055672;28;20103;-42
2022/10/29 08:01:12;;;;;;;29.35;16.45;;;13.00;99.90;;;;;;5038021;28;20132;-42
2022/10/29 08:03:39;;;;;;;34.53;19.33;;;13.10;99.90;;;;;;5053658;28;20059;-42
2022/10/29 08:06:07;;;;;;;30.65;17.65;;;13.10;99.90;;;;;;5055387;28;20076;-41
2022/10/29 08:08:34;;;;;;;34.80;17.92;;;13.10;99.90;;;;;;5037714;28;20145;-42
2022/10/29 08:11:01;;;;;;;29.30;18.60;;;13.20;99.90;;;;;;5055251;28;20052;-41
2022/10/29 08:13:28;;;;;;;23.00;16.23;;;13.20;99.90;;;;;;5055249;28;20231;-42
2022/10/29 08:15:55;;;;;;;32.95;18.83;;;13.20;99.90;;;;;;5053546;28;20131;-41
2022/10/29 08:18:22;;;;;;;32.88;17.90;;;13.30;99.90;;;;;;5055494;28;20472;-41
2022/10/29 08:20:48;;;;;;;33.55;19.35;;;13.30;99.90;;;;;;5037024;28;20057;-42
2022/10/29 08:23:17;;;;;;;36.20;17.52;;;13.30;99.90;;;;;;5054713;28;20088;-42
2022/10/29 08:25:44;;;;;;;46.13;19.75;;;13.40;99.90;;;;;;5053267;28;20080;-40
2022/10/29 08:28:12;;;;;;;40.17;20.13;;;13.40;99.90;;;;;;5054064;28;20087;-41
2022/10/29 08:30:38;;;;;;;42.67;20.00;;;13.50;99.90;;;;;;5052802;28;20539;-42
2022/10/29 08:33:05;;;;;;;41.22;20.13;;;13.50;99.90;;;;;;5034537;28;20104;-42
2022/10/29 08:35:32;;;;;;;39.78;18.98;;;13.60;99.90;;;;;;5053557;28;20140;-43
2022/10/29 08:37:59;;;;;;;44.90;19.88;;;13.70;99.90;;;;;;5051780;28;20051;-42
2022/10/29 08:40:31;;;;;;;40.38;20.30;;;13.70;99.90;;;;;;5054715;28;20132;-41
2022/10/29 08:43:18;;;;;;;49.78;19.27;;;13.80;99.90;;;;;;5054853;28;20088;-42
2022/10/29 08:45:45;;;;;;;36.30;17.65;;;13.80;99.90;;;;;;5037010;28;20489;-43
2022/10/29 08:48:29;;;;;;;48.92;19.98;;;14.00;99.90;;;;;;5036941;28;20524;-41
2022/10/29 08:50:59;;;;;;;41.53;19.10;;;14.00;99.90;;;;;;5052035;28;20091;-41
2022/10/29 08:53:34;;;;;;;55.95;20.80;;;14.10;99.90;;;;;;5035391;28;20055;-41
2022/10/29 08:56:03;;;;;;;42.67;20.80;;;14.20;99.90;;;;;;5037116;28;20045;-41
2022/10/29 08:58:33;;;;;;;46.75;20.95;;;14.30;99.90;;;;;;5054527;28;20448;-40
2022/10/29 09:00:59;;;;;;;48.63;21.63;;;14.40;99.90;;;;;;5034222;28;20099;-41
2022/10/29 09:03:28;;;;;;;47.40;20.20;;;14.50;99.90;;;;;;5054170;28;20117;-41
2022/10/29 09:06:00;;;;;;;43.10;19.05;;;14.60;99.90;;;;;;5054202;28;20049;-41
2022/10/29 09:08:31;;;;;;;55.40;20.90;;;14.70;99.90;;;;;;5053570;28;20452;-41
2022/10/29 09:11:00;;;;;;;39.00;19.60;;;14.80;99.90;;;;;;5036493;28;20053;-41
2022/10/29 09:13:34;;;;;;;48.17;21.95;;;14.80;99.90;;;;;;5032507;28;20060;-41
2022/10/29 09:16:08;;;;;;;40.72;20.85;;;14.90;99.90;;;;;;5045585;28;20438;-41
2022/10/29 09:18:43;;;;;;;48.53;22.25;;;15.00;99.90;;;;;;5054285;28;20135;-40
2022/10/29 09:21:16;;;;;;;46.97;21.90;;;15.10;99.90;;;;;;5052044;28;20107;-41
2022/10/29 09:24:02;;;;;;;44.47;23.75;;;15.10;99.90;;;;;;5033866;28;20053;-41
2022/10/29 09:26:31;;;;;;;51.03;24.33;;;15.20;99.90;;;;;;5035474;28;20048;-42
2022/10/29 09:29:13;;;;;;;48.08;24.33;;;15.20;99.90;;;;;;5054051;28;20370;-43
2022/10/29 09:31:41;;;;;;;45.67;24.23;;;15.30;99.90;;;;;;5053091;28;20133;-42
2022/10/29 09:34:12;;;;;;;49.05;24.80;;;15.30;99.90;;;;;;5052593;28;20413;-40
2022/10/29 09:36:38;;;;;;;48.63;26.35;;;15.40;99.90;;;;;;5038743;28;20072;-40
2022/10/29 09:39:10;;;;;;;47.83;26.08;;;15.50;99.90;;;;;;5016286;28;20458;-40
2022/10/29 09:41:37;;;;;;;49.42;26.23;;;15.50;99.90;;;;;;5042374;28;20069;-41
2022/10/29 09:44:07;;;;;;;49.38;24.98;;;15.60;99.90;;;;;;5052496;28;20053;-40
2022/10/29 09:46:37;;;;;;;51.33;24.48;;;15.70;99.90;;;;;;5053219;28;20041;-41
2022/10/29 09:49:10;;;;;;;40.67;22.08;;;15.70;99.90;;;;;;5034466;28;20533;-40
2022/10/29 09:51:40;;;;;;;45.78;21.50;;;15.80;99.90;;;;;;5041129;28;20092;-41
2022/10/29 09:54:07;;;;;;;44.35;21.35;;;15.90;99.90;;;;;;5036119;28;20049;-41
2022/10/29 09:56:34;;;;;;;46.72;21.63;;;15.90;99.90;;;;;;5052731;28;20133;-41
2022/10/29 09:59:09;;;;;;;41.13;21.05;;;16.00;99.90;;;;;;5053448;28;20568;-40
2022/10/29 10:01:36;;;;;;;44.90;20.35;;;16.10;99.90;;;;;;5053371;28;20052;-41
2022/10/29 10:04:06;;;;;;;38.55;20.13;;;16.20;99.90;;;;;;5051662;28;20120;-41
2022/10/29 10:06:34;;;;;;;42.75;18.25;;;16.30;99.90;;;;;;5034655;28;20088;-41
2022/10/29 10:09:03;;;;;;;38.80;18.08;;;16.30;99.90;;;;;;5052173;28;20148;-41
2022/10/29 10:11:35;;;;;;;37.60;17.60;;;16.40;99.90;;;;;;5051408;28;20493;-40
2022/10/29 10:14:02;;;;;;;41.65;18.02;;;16.50;99.90;;;;;;5035304;28;20056;-40
2022/10/29 10:16:32;;;;;;;38.40;18.27;;;16.50;99.90;;;;;;5035042;28;20103;-40
2022/10/29 10:18:59;;;;;;;44.25;17.67;;;16.60;99.90;;;;;;5051516;28;20082;-41
2022/10/29 10:21:27;;;;;;;38.72;17.30;;;16.70;99.90;;;;;;5034016;28;20143;-41
2022/10/29 10:23:54;;;;;;;39.75;18.67;;;16.80;99.90;;;;;;5033729;28;20073;-41
2022/10/29 10:26:32;;;;;;;34.83;17.08;;;16.80;99.90;;;;;;5034910;28;20045;-41
2022/10/29 10:29:20;;;;;;;34.13;16.60;;;16.90;99.90;;;;;;5034415;28;20056;-41
2022/10/29 10:31:49;;;;;;;43.78;17.05;;;17.00;99.90;;;;;;5045368;28;20052;-41
2022/10/29 10:34:17;;;;;;;34.15;17.42;;;17.10;99.90;;;;;;5035386;28;20053;-41
2022/10/29 10:36:47;;;;;;;33.00;16.30;;;17.30;99.90;;;;;;5035221;28;20132;-41
2022/10/29 10:39:24;;;;;;;35.22;16.40;;;17.40;99.90;;;;;;5051628;28;20194;-41
2022/10/29 10:41:51;;;;;;;40.47;16.88;;;17.60;99.90;;;;;;5033533;28;20085;-43
2022/10/29 10:44:18;;;;;;;33.38;16.65;;;17.70;99.90;;;;;;5050878;28;20386;-41
2022/10/29 10:46:45;;;;;;;37.38;16.40;;;17.80;99.90;;;;;;5052547;28;20543;-40
2022/10/29 10:49:15;;;;;;;39.00;17.42;;;17.90;99.90;;;;;;5052415;28;20081;-40
2022/10/29 10:51:43;;;;;;;39.50;16.58;;;18.00;99.90;;;;;;5052570;28;20512;-40
2022/10/29 10:54:30;;;;;;;40.75;16.10;;;18.20;99.90;;;;;;5050334;28;20209;-40
2022/10/29 10:56:58;;;;;;;39.30;16.35;;;18.20;99.90;;;;;;5033350;28;20067;-40
2022/10/29 10:59:25;;;;;;;37.35;16.42;;;18.20;99.90;;;;;;5024549;28;20050;-40
2022/10/29 11:01:52;;;;;;;38.85;16.83;;;18.20;99.90;;;;;;5049115;28;20454;-40
2022/10/29 11:04:21;;;;;;;36.42;17.08;;;18.30;99.90;;;;;;5038439;28;20553;-41
2022/10/29 11:06:49;;;;;;;35.47;16.10;;;18.30;99.90;;;;;;5056585;28;20119;-40
2022/10/29 11:09:21;;;;;;;34.42;16.20;;;18.40;99.90;;;;;;5040649;28;20084;-40
2022/10/29 11:11:49;;;;;;;37.03;15.85;;;18.40;99.90;;;;;;5058460;28;20060;-41
2022/10/29 11:14:21;;;;;;;39.70;15.57;;;18.40;99.90;;;;;;5039987;28;20052;-40
2022/10/29 11:16:50;;;;;;;43.17;16.55;;;18.40;99.90;;;;;;5057201;28;20119;-41
2022/10/29 11:19:22;;;;;;;35.45;15.68;;;18.50;99.90;;;;;;5039929;28;20486;-40
2022/10/29 11:22:00;;;;;;;33.85;15.02;;;18.50;99.90;;;;;;5041127;28;20122;-41
2022/10/29 11:24:32;;;;;;;36.15;15.18;;;18.60;99.90;;;;;;5058133;28;20053;-40
2022/10/29 11:27:01;;;;;;;40.15;16.83;;;18.70;99.90;;;;;;5041297;28;20143;-43
2022/10/29 11:29:32;;;;;;;36.45;15.80;;;18.80;99.90;;;;;;5041297;28;20136;-40
2022/10/29 11:32:00;;;;;;;41.30;14.60;;;18.80;99.90;;;;;;5029059;28;20080;-41
2022/10/29 11:34:34;;;;;;;41.25;14.85;;;18.80;99.90;;;;;;5057852;28;20573;-42
2022/10/29 11:37:03;;;;;;;37.92;14.27;;;18.80;99.90;;;;;;5058942;28;20139;-41
2022/10/29 11:39:31;;;;;;;42.13;14.68;;;18.90;99.90;;;;;;5059146;28;20084;-40
2022/10/29 11:41:59;;;;;;;40.53;14.82;;;18.90;99.90;;;;;;5056772;28;20132;-42
2022/10/29 11:44:26;;;;;;;37.70;15.55;;;18.90;99.90;;;;;;5058543;28;20092;-41
2022/10/29 11:47:01;;;;;;;35.15;14.73;;;19.00;99.90;;;;;;5057381;28;20090;-41
2022/10/29 11:49:38;;;;;;;38.50;14.40;;;19.00;99.90;;;;;;5040763;28;20057;-41
2022/10/29 11:52:08;;;;;;;36.35;15.40;;;19.10;99.90;;;;;;5040340;28;20083;-40
2022/10/29 11:54:45;;;;;;;32.60;12.98;;;19.10;99.90;;;;;;5056466;28;20449;-41
2022/10/29 11:57:15;;;;;;;35.25;14.15;;;19.30;99.90;;;;;;5021178;28;20132;-40
2022/10/29 11:59:59;;;;;;;41.53;14.05;;;19.40;99.90;;;;;;5021313;28;20136;-41
2022/10/29 12:02:33;;;;;;;33.88;13.80;;;19.70;99.90;;;;;;5027366;28;20063;-41
2022/10/29 12:05:02;;;;;;;35.78;14.02;;;19.80;99.90;;;;;;5058100;28;20135;-41
2022/10/29 12:07:35;;;;;;;30.08;13.70;;;19.80;99.90;;;;;;5056986;28;20454;-41
2022/10/29 12:10:16;;;;;;;34.55;13.02;;;19.80;99.90;;;;;;5040324;28;20504;-42
2022/10/29 12:12:45;;;;;;;40.65;13.75;;;19.70;99.90;;;;;;5054437;28;20543;-41
2022/10/29 12:15:16;;;;;;;28.90;13.05;;;19.80;99.90;;;;;;5055378;28;20091;-41
2022/10/29 12:17:46;;;;;;;34.13;13.20;;;19.80;99.90;;;;;;5054994;28;20090;-40
2022/10/29 12:20:16;;;;;;;27.88;12.60;;;19.80;99.90;;;;;;5054374;28;20088;-41
2022/10/29 12:22:45;;;;;;;33.45;12.60;;;19.90;99.90;;;;;;5055472;28;20080;-40
2022/10/29 12:25:23;;;;;;;31.10;12.85;;;20.00;99.90;;;;;;5055042;28;20107;-42
2022/10/29 12:27:54;;;;;;;32.42;13.40;;;20.10;99.90;;;;;;5037958;28;20248;-41
2022/10/29 12:30:22;;;;;;;29.27;12.10;;;20.20;99.90;;;;;;5037570;28;20084;-41
2022/10/29 12:32:53;;;;;;;26.35;11.95;;;20.20;99.90;;;;;;5033300;28;20087;-41
2022/10/29 12:35:24;;;;;;;35.58;13.38;;;20.20;99.90;;;;;;5048608;28;20056;-41
2022/10/29 12:37:55;;;;;;;;;;;20.20;99.90;;;;;;5054483;28;20063;-41